createdAt,value
2023-03-11T00:01:40.321Z,34.47
2023-03-11T00:04:10.258Z,34.43
2023-03-11T00:06:41.556Z,34.45
2023-03-11T00:09:11.920Z,34.42
2023-03-11T00:11:41.856Z,34.43
2023-03-11T00:14:13.163Z,34.42
2023-03-11T00:16:43.279Z,34.40
2023-03-11T00:19:13.251Z,34.37
2023-03-11T00:21:43.176Z,34.37
2023-03-11T00:24:14.318Z,34.36
2023-03-11T00:26:44.160Z,34.37
2023-03-11T00:29:14.375Z,34.34
2023-03-11T00:31:44.403Z,34.36
2023-03-11T00:34:15.788Z,34.36
2023-03-11T00:36:45.911Z,34.36
2023-03-11T00:39:16.097Z,34.32
2023-03-11T00:41:46.256Z,34.33
2023-03-11T00:44:16.108Z,34.29
2023-03-11T00:46:46.198Z,34.30
2023-03-11T00:49:16.256Z,34.27
2023-03-11T00:51:46.077Z,34.28
2023-03-11T00:54:16.068Z,34.29
2023-03-11T00:56:45.976Z,34.26
2023-03-11T00:59:15.840Z,34.26
2023-03-11T01:01:45.806Z,34.23
2023-03-11T01:04:15.729Z,34.21
2023-03-11T01:06:46.026Z,34.22
2023-03-11T01:09:16.550Z,34.22
2023-03-11T01:11:46.378Z,34.20
2023-03-11T01:14:16.429Z,34.17
2023-03-11T01:16:49.892Z,34.17
2023-03-11T01:19:19.744Z,34.15
2023-03-11T01:21:51.896Z,34.16
2023-03-11T01:24:22.804Z,34.18
2023-03-11T01:26:56.163Z,34.14
2023-03-11T01:29:26.965Z,34.13
2023-03-11T01:32:00.009Z,34.12
2023-03-11T01:34:29.874Z,34.12
2023-03-11T01:36:59.735Z,34.10
2023-03-11T01:39:29.880Z,34.12
2023-03-11T01:41:59.683Z,34.10
2023-03-11T01:44:32.095Z,34.07
2023-03-11T01:47:08.075Z,34.06
2023-03-11T01:49:39.581Z,34.22
2023-03-11T01:52:09.424Z,34.22
2023-03-11T01:54:40.619Z,34.04
2023-03-11T01:57:12.022Z,34.03
2023-03-11T01:59:44.196Z,34.05
2023-03-11T02:02:31.861Z,34.03
2023-03-11T02:05:02.160Z,34.06
2023-03-11T02:07:32.892Z,33.99
2023-03-11T02:10:03.141Z,34.03
2023-03-11T02:12:33.386Z,34.02
2023-03-11T02:15:03.321Z,34.03
2023-03-11T02:17:33.721Z,34.04
2023-03-11T02:20:25.855Z,34.07
2023-03-11T02:22:57.923Z,34.08
2023-03-11T02:25:30.642Z,34.05
2023-03-11T02:28:00.842Z,34.06
2023-03-11T02:30:30.969Z,34.07
2023-03-11T02:33:00.969Z,34.06
2023-03-11T02:35:30.829Z,34.05
2023-03-11T02:38:00.736Z,34.04
2023-03-11T02:40:38.943Z,34.04
2023-03-11T02:43:12.914Z,34.05
2023-03-11T02:45:42.884Z,34.03
2023-03-11T02:48:13.165Z,34.01
2023-03-11T02:50:42.992Z,34.02
2023-03-11T02:53:12.823Z,34.03
2023-03-11T02:55:42.996Z,34.27
2023-03-11T02:58:12.882Z,34.27
2023-03-11T03:00:42.729Z,33.99
2023-03-11T03:03:20.002Z,33.99
2023-03-11T03:05:50.275Z,33.97
2023-03-11T03:08:20.448Z,33.98
2023-03-11T03:10:50.649Z,33.97
2023-03-11T03:13:21.146Z,34.00
2023-03-11T03:15:51.201Z,33.99
2023-03-11T03:18:21.154Z,33.94
2023-03-11T03:20:51.303Z,33.93
2023-03-11T03:23:23.482Z,33.89
2023-03-11T03:25:54.350Z,33.91
2023-03-11T03:28:28.017Z,33.91
2023-03-11T03:30:58.073Z,33.88
2023-03-11T03:33:27.984Z,33.89
2023-03-11T03:35:57.910Z,33.94
2023-03-11T03:38:27.954Z,33.97
2023-03-11T03:41:00.228Z,33.94
2023-03-11T03:43:43.748Z,33.95
2023-03-11T03:46:13.832Z,33.94
2023-03-11T03:48:43.803Z,33.96
2023-03-11T03:51:14.045Z,33.94
2023-03-11T03:53:43.998Z,34.00
2023-03-11T03:56:14.983Z,33.94
2023-03-11T03:58:44.859Z,33.91
2023-03-11T04:01:14.717Z,33.89
2023-03-11T04:03:53.271Z,33.93
2023-03-11T04:06:24.766Z,33.92
2023-03-11T04:08:55.289Z,33.94
2023-03-11T04:11:25.439Z,33.94
2023-03-11T04:13:56.352Z,33.95
2023-03-11T04:16:26.450Z,33.95
2023-03-11T04:18:57.524Z,33.97
2023-03-11T04:21:29.704Z,33.97
2023-03-11T04:23:59.691Z,33.95
2023-03-11T04:26:29.905Z,33.95
2023-03-11T04:28:59.749Z,33.96
2023-03-11T04:31:29.665Z,33.95
2023-03-11T04:33:59.756Z,33.93
2023-03-11T04:36:29.685Z,33.95
2023-03-11T04:38:59.594Z,33.95
2023-03-11T04:41:29.653Z,33.94
2023-03-11T04:44:00.491Z,33.98
2023-03-11T04:46:30.447Z,33.99
2023-03-11T04:49:01.749Z,33.97
2023-03-11T04:51:31.890Z,34.01
2023-03-11T04:54:01.846Z,33.99
2023-03-11T04:56:32.880Z,34.00
2023-03-11T04:59:04.036Z,33.99
2023-03-11T05:01:33.906Z,33.98
2023-03-11T05:04:05.360Z,34.00
2023-03-11T05:06:36.003Z,33.99
2023-03-11T05:09:05.906Z,33.98
2023-03-11T05:11:35.936Z,33.97
2023-03-11T05:14:05.823Z,33.97
2023-03-11T05:16:36.461Z,33.97
2023-03-11T05:19:07.854Z,33.96
2023-03-11T05:21:37.800Z,33.97
2023-03-11T05:24:07.907Z,33.96
2023-03-11T05:26:38.719Z,33.94
2023-03-11T05:29:08.582Z,33.95
2023-03-11T05:31:38.468Z,33.98
2023-03-11T05:34:08.578Z,33.98
2023-03-11T05:36:38.429Z,33.94
2023-03-11T05:39:08.422Z,33.92
2023-03-11T05:41:38.309Z,33.92
2023-03-11T05:44:08.408Z,33.96
2023-03-11T05:46:38.390Z,33.99
2023-03-11T05:49:08.403Z,34.11
2023-03-11T05:51:38.836Z,34.25
2023-03-11T05:56:40.534Z,34.73
2023-03-11T05:59:10.936Z,34.74
2023-03-11T06:01:40.973Z,34.90
2023-03-11T06:04:10.989Z,34.90
2023-03-11T06:06:43.709Z,34.87
2023-03-11T06:09:16.592Z,35.00
2023-03-11T06:11:46.472Z,35.08
2023-03-11T06:14:16.809Z,35.11
2023-03-11T06:16:46.753Z,35.13
2023-03-11T06:19:16.666Z,35.08
2023-03-11T06:21:46.499Z,35.07
2023-03-11T06:24:17.996Z,35.05
2023-03-11T06:26:48.038Z,34.99
2023-03-11T06:29:17.865Z,34.99
2023-03-11T06:31:49.205Z,34.95
2023-03-11T06:34:19.088Z,34.93
2023-03-11T06:36:49.017Z,34.90
2023-03-11T06:39:18.959Z,34.90
2023-03-11T06:41:48.817Z,34.90
2023-03-11T06:44:18.765Z,34.88
2023-03-11T06:46:48.957Z,34.86
2023-03-11T06:49:18.799Z,34.85
2023-03-11T06:51:48.951Z,34.83
2023-03-11T06:54:19.019Z,34.83
2023-03-11T06:56:48.857Z,34.85
2023-03-11T06:59:18.791Z,34.86
2023-03-11T07:01:48.727Z,34.82
2023-03-11T07:04:18.640Z,34.78
2023-03-11T07:06:48.750Z,34.78
2023-03-11T07:09:18.684Z,34.76
2023-03-11T07:11:48.555Z,34.78
2023-03-11T07:14:18.773Z,34.76
2023-03-11T07:16:48.841Z,34.77
2023-03-11T07:19:18.874Z,34.76
2023-03-11T07:21:48.759Z,34.77
2023-03-11T07:24:19.049Z,34.78
2023-03-11T07:26:49.192Z,34.76
2023-03-11T07:29:19.909Z,34.77
2023-03-11T07:31:50.331Z,34.76
2023-03-11T07:34:20.507Z,34.76
2023-03-11T07:36:50.634Z,34.72
2023-03-11T07:39:20.717Z,34.71
2023-03-11T07:41:50.555Z,34.73
2023-03-11T07:44:20.471Z,34.74
2023-03-11T07:46:50.395Z,34.74
2023-03-11T07:49:20.788Z,34.71
2023-03-11T07:51:50.844Z,34.69
2023-03-11T07:54:20.772Z,34.73
2023-03-11T07:56:50.926Z,34.69
2023-03-11T07:59:21.365Z,34.71
2023-03-11T08:01:51.408Z,34.70
2023-03-11T08:04:21.274Z,34.72
2023-03-11T08:06:51.247Z,34.70
2023-03-11T08:09:21.186Z,34.67
2023-03-11T08:11:51.322Z,34.65
2023-03-11T08:14:21.391Z,34.66
2023-03-11T08:16:51.250Z,34.65
2023-03-11T08:19:21.110Z,34.66
2023-03-11T08:24:31.161Z,34.76
2023-03-11T08:27:00.961Z,34.74
2023-03-11T08:29:30.798Z,34.70
2023-03-11T08:32:00.591Z,34.67
2023-03-11T08:34:31.144Z,34.67
2023-03-11T08:37:01.072Z,34.67
2023-03-11T08:39:30.863Z,34.65
2023-03-11T08:42:00.846Z,34.66
2023-03-11T08:44:30.820Z,34.65
2023-03-11T08:47:00.818Z,34.65
2023-03-11T08:49:34.870Z,34.64
2023-03-11T08:52:05.054Z,34.64
2023-03-11T08:54:35.139Z,34.65
2023-03-11T08:57:05.407Z,34.65
2023-03-11T08:59:35.348Z,34.67
2023-03-11T09:02:05.517Z,34.66
2023-03-11T09:04:35.363Z,34.70
2023-03-11T09:07:05.591Z,34.71
2023-03-11T09:09:35.530Z,34.72
2023-03-11T09:12:05.474Z,34.71
2023-03-11T09:14:39.473Z,34.71
2023-03-11T09:17:09.364Z,34.68
2023-03-11T09:19:39.196Z,34.69
2023-03-11T09:22:09.115Z,34.72
2023-03-11T09:24:39.015Z,34.70
2023-03-11T09:27:08.852Z,34.71
2023-03-11T09:29:38.676Z,34.72
2023-03-11T09:32:08.688Z,34.74
2023-03-11T09:34:40.023Z,34.72
2023-03-11T09:37:11.142Z,34.70
2023-03-11T09:39:41.206Z,34.73
2023-03-11T09:42:22.080Z,34.74
2023-03-11T09:44:54.612Z,34.74
2023-03-11T09:47:30.592Z,34.77
2023-03-11T09:50:24.299Z,34.81
2023-03-11T09:53:04.282Z,34.75
2023-03-11T09:55:56.297Z,34.73
2023-03-11T09:58:44.106Z,34.74
2023-03-11T10:01:24.936Z,34.73
2023-03-11T10:04:24.205Z,34.75
2023-03-11T10:06:55.235Z,34.77
2023-03-11T10:09:33.935Z,34.75
2023-03-11T10:12:28.571Z,34.77
2023-03-11T10:15:23.331Z,34.82
2023-03-11T10:18:04.842Z,34.83
2023-03-11T10:20:55.479Z,34.81
2023-03-11T10:23:51.787Z,34.80
2023-03-11T10:26:24.356Z,34.80
2023-03-11T10:28:58.069Z,34.81
2023-03-11T10:31:33.801Z,34.82
2023-03-11T10:34:09.326Z,34.84
2023-03-11T10:36:41.689Z,34.84
2023-03-11T10:39:12.958Z,34.85
2023-03-11T10:41:50.793Z,34.88
2023-03-11T10:44:24.641Z,34.91
2023-03-11T10:46:54.691Z,34.91
2023-03-11T10:49:25.067Z,34.93
2023-03-11T10:51:55.178Z,34.88
2023-03-11T10:54:32.165Z,34.91
2023-03-11T10:57:09.214Z,34.92
2023-03-11T10:59:52.572Z,34.92
2023-03-11T11:02:28.057Z,34.93
2023-03-11T11:05:19.717Z,34.90
2023-03-11T11:07:54.088Z,34.95
2023-03-11T11:10:53.027Z,34.95
2023-03-11T11:13:23.872Z,34.98
2023-03-11T11:16:04.292Z,34.97
2023-03-11T11:18:38.756Z,34.99
2023-03-11T11:21:16.827Z,35.05
2023-03-11T11:23:53.940Z,35.33
2023-03-11T11:26:27.152Z,35.40
2023-03-11T11:29:16.885Z,35.35
2023-03-11T11:31:47.635Z,35.33
2023-03-11T11:34:26.324Z,35.31
2023-03-11T11:36:58.022Z,35.26
2023-03-11T11:39:29.645Z,35.27
2023-03-11T11:41:59.690Z,35.29
2023-03-11T11:44:32.316Z,35.39
2023-03-11T11:47:07.920Z,35.25
2023-03-11T11:49:37.951Z,35.25
2023-03-11T11:52:21.534Z,35.38
2023-03-11T11:55:00.318Z,35.43
2023-03-11T11:57:30.148Z,35.54
2023-03-11T11:59:59.990Z,35.59
2023-03-11T12:02:32.951Z,35.54
2023-03-11T12:05:29.751Z,35.93
2023-03-11T12:08:04.832Z,36.15
2023-03-11T12:10:36.171Z,36.41
2023-03-11T12:13:20.493Z,36.54
2023-03-11T12:15:52.031Z,36.51
2023-03-11T12:18:31.057Z,36.42
2023-03-11T12:21:01.090Z,36.41
2023-03-11T12:23:45.631Z,36.40
2023-03-11T12:26:24.048Z,36.41
2023-03-11T12:29:16.598Z,36.40
2023-03-11T12:31:46.725Z,36.29
2023-03-11T12:34:18.331Z,36.29
2023-03-11T12:36:48.347Z,36.15
2023-03-11T12:39:25.993Z,36.21
2023-03-11T12:42:21.683Z,36.26
2023-03-11T12:44:51.540Z,36.32
2023-03-11T12:47:26.269Z,36.28
2023-03-11T12:49:58.136Z,36.27
2023-03-11T12:52:30.153Z,36.21
2023-03-11T12:55:02.710Z,36.14
2023-03-11T12:57:35.420Z,36.05
2023-03-11T13:03:18.495Z,36.18
2023-03-11T13:06:03.102Z,36.17
2023-03-11T13:08:47.242Z,36.07
2023-03-11T13:11:38.321Z,35.97
2023-03-11T13:14:33.592Z,35.84
2023-03-11T13:17:31.643Z,35.82
2023-03-11T13:20:01.451Z,35.84
2023-03-11T13:22:46.762Z,35.95
2023-03-11T13:25:34.081Z,35.99
2023-03-11T13:28:18.565Z,36.02
2023-03-11T13:30:53.951Z,35.99
2023-03-11T13:33:45.422Z,35.87
2023-03-11T13:36:51.424Z,35.81
2023-03-11T13:39:46.418Z,35.97
2023-03-11T13:42:34.043Z,36.02
2023-03-11T13:45:05.326Z,36.08
2023-03-11T13:47:35.421Z,36.27
2023-03-11T13:50:10.597Z,36.31
2023-03-11T13:52:56.786Z,36.33
2023-03-11T13:55:32.473Z,36.29
2023-03-11T13:58:04.996Z,36.32
2023-03-11T14:00:35.160Z,36.34
2023-03-11T14:03:07.422Z,36.18
2023-03-11T14:05:38.064Z,36.17
2023-03-11T14:08:22.384Z,36.12
2023-03-11T14:10:55.751Z,36.17
2023-03-11T14:13:27.126Z,36.28
2023-03-11T14:16:10.077Z,36.30
2023-03-11T14:18:42.241Z,36.28
2023-03-11T14:21:22.500Z,36.32
2023-03-11T14:23:53.045Z,36.36
2023-03-11T14:26:28.335Z,36.30
2023-03-11T14:29:01.127Z,36.18
2023-03-11T14:31:41.362Z,36.12
2023-03-11T14:34:19.384Z,36.12
2023-03-11T14:36:51.621Z,36.09
2023-03-11T14:39:35.283Z,36.11
2023-03-11T14:42:22.630Z,36.11
2023-03-11T14:45:17.950Z,36.14
2023-03-11T14:48:05.718Z,36.12
2023-03-11T14:50:37.352Z,36.15
2023-03-11T14:53:32.090Z,36.11
2023-03-11T14:56:03.715Z,36.10
2023-03-11T14:58:41.451Z,36.08
2023-03-11T15:01:22.305Z,36.09
2023-03-11T15:03:58.284Z,36.09
2023-03-11T15:06:31.999Z,36.09
2023-03-11T15:09:05.055Z,36.09
2023-03-11T15:11:52.868Z,36.10
2023-03-11T15:14:29.927Z,36.09
2023-03-11T15:17:05.185Z,36.08
2023-03-11T15:19:35.538Z,36.14
2023-03-11T15:22:33.643Z,36.16
2023-03-11T15:25:04.770Z,36.17
2023-03-11T15:27:36.962Z,36.19
2023-03-11T15:30:09.552Z,36.18
2023-03-11T15:32:41.694Z,36.18
2023-03-11T15:35:19.469Z,36.19
2023-03-11T15:37:50.284Z,36.19
2023-03-11T15:40:43.841Z,36.18
2023-03-11T15:43:20.420Z,36.21
2023-03-11T15:45:50.797Z,36.23
2023-03-11T15:48:20.758Z,36.28
2023-03-11T15:50:56.423Z,36.24
2023-03-11T15:53:28.083Z,36.20
2023-03-11T15:56:06.945Z,36.23
2023-03-11T15:58:32.009Z,36.20
2023-03-11T16:01:02.019Z,36.24
2023-03-11T16:03:31.874Z,36.21
2023-03-11T16:06:01.837Z,36.20
2023-03-11T16:08:31.739Z,36.21
2023-03-11T16:11:01.584Z,36.24
2023-03-11T16:13:31.452Z,36.25
2023-03-11T16:16:02.848Z,36.29
2023-03-11T16:18:33.069Z,36.31
2023-03-11T16:21:32.905Z,36.33
2023-03-11T16:24:01.979Z,36.42
2023-03-11T16:26:31.827Z,36.40
2023-03-11T16:29:16.583Z,36.37
2023-03-11T16:31:33.504Z,36.44
2023-03-11T16:34:03.362Z,36.36
2023-03-11T16:36:33.607Z,36.35
2023-03-11T16:39:03.770Z,36.29
2023-03-11T16:41:44.271Z,36.35
2023-03-11T16:44:14.224Z,36.31
2023-03-11T16:46:44.104Z,36.31
2023-03-11T16:49:14.032Z,36.41
2023-03-11T16:51:44.179Z,36.36
2023-03-11T16:54:14.026Z,36.38
2023-03-11T16:56:43.984Z,36.55
2023-03-11T16:59:14.200Z,36.62
2023-03-11T17:01:44.100Z,36.67
2023-03-11T17:04:14.208Z,36.72
2023-03-11T17:06:44.309Z,36.75
2023-03-11T17:09:14.473Z,36.80
2023-03-11T17:11:44.278Z,36.84
2023-03-11T17:14:16.889Z,36.90
2023-03-11T17:16:46.256Z,36.89
2023-03-11T17:19:16.064Z,36.93
2023-03-11T17:21:46.018Z,36.97
2023-03-11T17:24:15.861Z,36.96
2023-03-11T17:26:45.710Z,37.00
2023-03-11T17:29:16.272Z,37.00
2023-03-11T17:31:46.474Z,36.99
2023-03-11T17:34:16.408Z,36.94
2023-03-11T17:36:46.540Z,36.83
2023-03-11T17:39:16.350Z,36.83
2023-03-11T17:41:46.376Z,37.10
2023-03-11T17:44:16.274Z,37.06
2023-03-11T17:46:46.298Z,36.93
2023-03-11T17:49:17.998Z,36.94
2023-03-11T17:51:47.909Z,36.84
2023-03-11T17:54:17.792Z,36.94
2023-03-11T17:56:47.702Z,36.93
2023-03-11T17:59:18.109Z,36.87
2023-03-11T18:01:48.016Z,36.94
2023-03-11T18:04:18.147Z,36.97
2023-03-11T18:06:48.140Z,36.95
2023-03-11T18:09:17.968Z,36.90
2023-03-11T18:11:47.916Z,36.90
2023-03-11T18:14:17.789Z,36.79
2023-03-11T18:16:47.801Z,36.82
2023-03-11T18:19:17.910Z,37.00
2023-03-11T18:21:47.781Z,36.84
2023-03-11T18:24:17.687Z,37.01
2023-03-11T18:26:47.593Z,37.01
2023-03-11T18:29:18.008Z,36.96
2023-03-11T18:31:48.460Z,36.92
2023-03-11T18:34:19.202Z,37.00
2023-03-11T18:36:50.031Z,37.02
2023-03-11T18:39:20.213Z,36.95
2023-03-11T18:41:51.177Z,36.94
2023-03-11T18:44:22.834Z,37.05
2023-03-11T18:46:52.720Z,37.04
2023-03-11T18:49:22.546Z,37.09
2023-03-11T18:51:52.407Z,37.10
2023-03-11T18:54:22.404Z,37.06
2023-03-11T18:56:52.345Z,37.11
2023-03-11T18:59:22.171Z,37.13
2023-03-11T19:01:55.129Z,37.23
2023-03-11T19:04:25.395Z,37.12
2023-03-11T19:06:55.580Z,37.19
2023-03-11T19:09:26.545Z,37.23
2023-03-11T19:11:57.536Z,37.05
2023-03-11T19:14:27.574Z,37.05
2023-03-11T19:16:57.718Z,37.12
2023-03-11T19:19:28.628Z,37.23
2023-03-11T19:21:58.640Z,37.20
2023-03-11T19:24:30.073Z,37.23
2023-03-11T19:27:00.022Z,37.22
2023-03-11T19:29:29.971Z,37.25
2023-03-11T19:32:01.739Z,37.23
2023-03-11T19:34:31.447Z,37.28
2023-03-11T19:37:03.765Z,37.19
2023-03-11T19:39:33.712Z,37.26
2023-03-11T19:42:04.663Z,37.24
2023-03-11T19:44:34.674Z,37.22
2023-03-11T19:47:04.622Z,37.29
2023-03-11T19:49:34.687Z,37.30
2023-03-11T19:52:06.014Z,37.37
2023-03-11T19:54:36.101Z,37.33
2023-03-11T19:57:07.298Z,37.37
2023-03-11T19:59:39.713Z,37.39
2023-03-11T20:02:11.785Z,37.41
2023-03-11T20:04:43.202Z,37.38
2023-03-11T20:07:14.830Z,37.42
2023-03-11T20:09:44.737Z,37.24
2023-03-11T20:12:14.622Z,37.29
2023-03-11T20:14:48.120Z,37.36
2023-03-11T20:17:19.635Z,37.32
2023-03-11T20:19:49.582Z,37.41
2023-03-11T20:22:20.701Z,37.36
2023-03-11T20:24:54.825Z,37.41
2023-03-11T20:27:27.052Z,37.33
2023-03-11T20:29:57.706Z,37.39
2023-03-11T20:32:29.060Z,37.44
2023-03-11T20:35:00.344Z,37.46
2023-03-11T20:37:31.986Z,37.50
2023-03-11T20:40:02.057Z,37.51
2023-03-11T20:42:31.955Z,37.45
2023-03-11T20:45:02.153Z,37.57
2023-03-11T20:47:34.483Z,37.62
2023-03-11T20:50:04.384Z,37.57
2023-03-11T20:52:35.736Z,37.59
2023-03-11T20:55:07.531Z,37.57
2023-03-11T20:57:37.663Z,37.63
2023-03-11T21:00:12.224Z,37.76
2023-03-11T21:02:42.454Z,37.63
2023-03-11T21:05:13.114Z,37.74
2023-03-11T21:07:42.967Z,37.76
2023-03-11T21:10:13.818Z,37.75
2023-03-11T21:12:43.907Z,37.83
2023-03-11T21:15:14.576Z,37.73
2023-03-11T21:17:44.414Z,37.83
2023-03-11T21:20:14.562Z,37.79
2023-03-11T21:22:44.742Z,37.78
2023-03-11T21:25:14.622Z,37.76
2023-03-11T21:27:44.769Z,37.78
2023-03-11T21:30:15.493Z,37.68
2023-03-11T21:32:45.797Z,37.81
2023-03-11T21:35:16.054Z,37.77
2023-03-11T21:37:47.342Z,37.81
2023-03-11T21:40:17.544Z,37.79
2023-03-11T21:42:47.474Z,37.87
2023-03-11T21:45:18.279Z,37.82
2023-03-11T21:47:48.349Z,37.79
2023-03-11T21:50:18.265Z,37.85
2023-03-11T21:52:48.248Z,37.78
2023-03-11T21:55:18.176Z,37.85
2023-03-11T21:57:48.185Z,37.89
2023-03-11T22:00:18.942Z,37.86
2023-03-11T22:02:48.888Z,37.95
2023-03-11T22:05:21.176Z,37.96
2023-03-11T22:07:51.565Z,37.94
2023-03-11T22:10:21.812Z,37.93
2023-03-11T22:12:51.867Z,37.99
2023-03-11T22:15:22.199Z,37.99
2023-03-11T22:17:52.574Z,38.01
2023-03-11T22:20:22.635Z,38.02
2023-03-11T22:22:52.591Z,38.03
2023-03-11T22:25:22.437Z,38.07
2023-03-11T22:27:52.662Z,38.03
2023-03-11T22:30:23.145Z,38.03
2023-03-11T22:32:53.033Z,38.05
2023-03-11T22:35:22.882Z,37.98
2023-03-11T22:37:52.789Z,38.08
2023-03-11T22:40:22.741Z,38.06
2023-03-11T22:42:52.580Z,38.06
2023-03-11T22:45:23.589Z,37.99
2023-03-11T22:47:54.704Z,38.02
2023-03-11T22:50:24.550Z,38.05
2023-03-11T22:52:54.700Z,37.96
2023-03-11T22:55:24.508Z,37.96
2023-03-11T22:57:54.352Z,38.08
2023-03-11T23:00:24.325Z,38.07
2023-03-11T23:02:57.470Z,38.07
2023-03-11T23:05:28.488Z,38.08
2023-03-11T23:07:59.197Z,38.03
2023-03-11T23:10:30.312Z,38.08
2023-03-11T23:13:00.184Z,38.08
2023-03-11T23:15:30.257Z,38.00
2023-03-11T23:18:02.065Z,38.05
2023-03-11T23:20:32.025Z,38.09
2023-03-11T23:23:02.026Z,38.09
2023-03-11T23:25:31.947Z,38.09
2023-03-11T23:28:02.766Z,38.02
2023-03-11T23:30:32.751Z,38.08
2023-03-11T23:33:03.578Z,38.16
2023-03-11T23:35:33.666Z,38.03
2023-03-11T23:38:03.737Z,38.10
2023-03-11T23:40:33.638Z,38.08
2023-03-11T23:43:04.460Z,38.12
2023-03-11T23:45:34.355Z,38.13
2023-03-11T23:48:04.180Z,38.15
2023-03-11T23:50:34.080Z,38.15
2023-03-11T23:53:03.925Z,38.18
2023-03-11T23:55:33.866Z,38.12
2023-03-11T23:58:03.808Z,38.17
